sensor_id;sensor_type;location;lat;lon;timestamp;pressure;altitude;pressure_sealevel;temperature;humidity
62600;BME280;48671;48.922;2.346;2023-03-13T00:01:29;100555.03;;;14.01;78.16
62600;BME280;48671;48.922;2.346;2023-03-13T00:03:55;100541.03;;;14.02;78.73
62600;BME280;48671;48.922;2.346;2023-03-13T00:06:22;100539.25;;;14.02;78.90
62600;BME280;48671;48.922;2.346;2023-03-13T00:08:48;100539.25;;;14.02;78.68
62600;BME280;48671;48.922;2.346;2023-03-13T00:11:14;100541.03;;;14.02;78.65
62600;BME280;48671;48.922;2.346;2023-03-13T00:13:41;100527.94;;;14.02;78.84
62600;BME280;48671;48.922;2.346;2023-03-13T00:16:10;100540.84;;;14.05;78.49
62600;BME280;48671;48.922;2.346;2023-03-13T00:18:36;100548.47;;;14.10;78.62
62600;BME280;48671;48.922;2.346;2023-03-13T00:21:08;100543.25;;;14.10;78.78
62600;BME280;48671;48.922;2.346;2023-03-13T00:23:35;100536.13;;;14.12;78.76
62600;BME280;48671;48.922;2.346;2023-03-13T00:26:05;100539.69;;;14.11;78.85
62600;BME280;48671;48.922;2.346;2023-03-13T00:28:31;100539.50;;;14.14;78.55
62600;BME280;48671;48.922;2.346;2023-03-13T00:31:30;100528.22;;;14.13;78.00
62600;BME280;48671;48.922;2.346;2023-03-13T00:34:02;100516.81;;;14.14;77.93
62600;BME280;48671;48.922;2.346;2023-03-13T00:36:30;100521.09;;;14.15;78.55
62600;BME280;48671;48.922;2.346;2023-03-13T00:38:56;100520.09;;;14.18;77.65
62600;BME280;48671;48.922;2.346;2023-03-13T00:41:27;100523.53;;;14.18;77.59
62600;BME280;48671;48.922;2.346;2023-03-13T00:43:53;100515.63;;;14.20;77.62
62600;BME280;48671;48.922;2.346;2023-03-13T00:46:20;100508.78;;;14.17;77.72
62600;BME280;48671;48.922;2.346;2023-03-13T00:48:46;100519.16;;;14.19;77.29
62600;BME280;48671;48.922;2.346;2023-03-13T00:51:13;100526.91;;;14.20;77.66
62600;BME280;48671;48.922;2.346;2023-03-13T00:53:38;100500.81;;;14.19;77.35
62600;BME280;48671;48.922;2.346;2023-03-13T00:56:05;100505.06;;;14.21;77.56
62600;BME280;48671;48.922;2.346;2023-03-13T00:58:34;100516.34;;;14.22;77.24
62600;BME280;48671;48.922;2.346;2023-03-13T01:01:16;100513.66;;;14.23;77.55
62600;BME280;48671;48.922;2.346;2023-03-13T01:03:45;100512.91;;;14.21;77.88
62600;BME280;48671;48.922;2.346;2023-03-13T01:06:13;100514.59;;;14.22;77.30
62600;BME280;48671;48.922;2.346;2023-03-13T01:08:39;100513.75;;;14.22;77.64
62600;BME280;48671;48.922;2.346;2023-03-13T01:11:14;100510.22;;;14.23;77.92
62600;BME280;48671;48.922;2.346;2023-03-13T01:13:40;100503.28;;;14.22;77.59
62600;BME280;48671;48.922;2.346;2023-03-13T01:16:14;100498.81;;;14.24;76.97
62600;BME280;48671;48.922;2.346;2023-03-13T01:18:43;100485.72;;;14.24;77.18
62600;BME280;48671;48.922;2.346;2023-03-13T01:21:10;100469.06;;;14.25;77.08
62600;BME280;48671;48.922;2.346;2023-03-13T01:23:35;100466.38;;;14.26;76.64
62600;BME280;48671;48.922;2.346;2023-03-13T01:26:03;100453.84;;;14.17;76.37
62600;BME280;48671;48.922;2.346;2023-03-13T01:28:29;100472.53;;;14.25;76.32
62600;BME280;48671;48.922;2.346;2023-03-13T01:30:54;100468.06;;;14.27;76.23
62600;BME280;48671;48.922;2.346;2023-03-13T01:33:20;100446.28;;;14.27;76.01
62600;BME280;48671;48.922;2.346;2023-03-13T01:35:46;100446.94;;;14.31;76.05
62600;BME280;48671;48.922;2.346;2023-03-13T01:38:11;100440.03;;;14.29;75.93
62600;BME280;48671;48.922;2.346;2023-03-13T01:40:41;100442.47;;;14.33;75.75
62600;BME280;48671;48.922;2.346;2023-03-13T01:43:25;100462.56;;;14.32;75.60
62600;BME280;48671;48.922;2.346;2023-03-13T01:46:13;100456.41;;;14.33;75.63
62600;BME280;48671;48.922;2.346;2023-03-13T01:51:24;100445.00;;;14.34;75.35
62600;BME280;48671;48.922;2.346;2023-03-13T01:53:59;100443.97;;;14.37;74.96
62600;BME280;48671;48.922;2.346;2023-03-13T01:56:35;100424.91;;;14.35;75.06
62600;BME280;48671;48.922;2.346;2023-03-13T01:59:03;100418.00;;;14.34;75.12
62600;BME280;48671;48.922;2.346;2023-03-13T02:01:30;100412.81;;;14.32;75.10
62600;BME280;48671;48.922;2.346;2023-03-13T02:03:57;100398.91;;;14.32;74.99
62600;BME280;48671;48.922;2.346;2023-03-13T02:06:24;100404.97;;;14.32;74.90
62600;BME280;48671;48.922;2.346;2023-03-13T02:08:56;100417.22;;;14.32;74.84
62600;BME280;48671;48.922;2.346;2023-03-13T02:11:29;100416.31;;;14.33;74.72
62600;BME280;48671;48.922;2.346;2023-03-13T02:13:57;100411.09;;;14.33;74.58
62600;BME280;48671;48.922;2.346;2023-03-13T02:16:23;100414.72;;;14.30;74.57
62600;BME280;48671;48.922;2.346;2023-03-13T02:18:48;100400.13;;;14.26;74.61
62600;BME280;48671;48.922;2.346;2023-03-13T02:21:41;100405.44;;;14.24;74.18
62600;BME280;48671;48.922;2.346;2023-03-13T02:24:15;100400.69;;;14.31;74.65
62600;BME280;48671;48.922;2.346;2023-03-13T02:26:44;100395.63;;;14.28;74.36
62600;BME280;48671;48.922;2.346;2023-03-13T02:29:09;100396.28;;;14.32;74.13
62600;BME280;48671;48.922;2.346;2023-03-13T02:31:43;100396.41;;;14.30;74.37
62600;BME280;48671;48.922;2.346;2023-03-13T02:34:10;100371.91;;;14.31;74.17
62600;BME280;48671;48.922;2.346;2023-03-13T02:36:38;100363.22;;;14.31;74.01
62600;BME280;48671;48.922;2.346;2023-03-13T02:39:05;100367.59;;;14.30;74.04
62600;BME280;48671;48.922;2.346;2023-03-13T02:41:32;100364.22;;;14.28;74.09
62600;BME280;48671;48.922;2.346;2023-03-13T02:43:58;100381.63;;;14.29;74.10
62600;BME280;48671;48.922;2.346;2023-03-13T02:46:23;100374.81;;;14.26;73.87
62600;BME280;48671;48.922;2.346;2023-03-13T02:48:52;100379.84;;;14.29;74.05
62600;BME280;48671;48.922;2.346;2023-03-13T02:51:26;100370.22;;;14.30;73.66
62600;BME280;48671;48.922;2.346;2023-03-13T02:53:57;100363.22;;;14.31;73.86
62600;BME280;48671;48.922;2.346;2023-03-13T02:56:26;100351.31;;;14.25;73.83
62600;BME280;48671;48.922;2.346;2023-03-13T02:58:52;100347.78;;;14.26;73.66
62600;BME280;48671;48.922;2.346;2023-03-13T03:01:17;100349.38;;;14.28;73.66
62600;BME280;48671;48.922;2.346;2023-03-13T03:03:42;100338.91;;;14.28;73.84
62600;BME280;48671;48.922;2.346;2023-03-13T03:06:08;100330.31;;;14.26;73.73
62600;BME280;48671;48.922;2.346;2023-03-13T03:08:33;100330.22;;;14.28;73.59
62600;BME280;48671;48.922;2.346;2023-03-13T03:10:59;100329.28;;;14.29;73.67
62600;BME280;48671;48.922;2.346;2023-03-13T03:13:24;100325.91;;;14.27;73.50
62600;BME280;48671;48.922;2.346;2023-03-13T03:15:50;100333.59;;;14.30;73.73
62600;BME280;48671;48.922;2.346;2023-03-13T03:18:15;100321.34;;;14.31;73.17
62600;BME280;48671;48.922;2.346;2023-03-13T03:20:41;100328.44;;;14.28;73.28
62600;BME280;48671;48.922;2.346;2023-03-13T03:23:06;100323.94;;;14.31;73.24
62600;BME280;48671;48.922;2.346;2023-03-13T03:25:31;100330.97;;;14.30;73.18
62600;BME280;48671;48.922;2.346;2023-03-13T03:27:57;100324.59;;;14.34;73.38
62600;BME280;48671;48.922;2.346;2023-03-13T03:30:22;100316.94;;;14.31;73.35
62600;BME280;48671;48.922;2.346;2023-03-13T03:32:47;100326.47;;;14.32;73.25
62600;BME280;48671;48.922;2.346;2023-03-13T03:35:13;100337.81;;;14.33;73.11
62600;BME280;48671;48.922;2.346;2023-03-13T03:37:38;100331.81;;;14.31;72.83
62600;BME280;48671;48.922;2.346;2023-03-13T03:40:04;100324.72;;;14.33;73.29
62600;BME280;48671;48.922;2.346;2023-03-13T03:42:30;100335.91;;;14.35;73.13
62600;BME280;48671;48.922;2.346;2023-03-13T03:44:56;100329.84;;;14.34;72.95
62600;BME280;48671;48.922;2.346;2023-03-13T03:47:21;100341.16;;;14.35;73.29
62600;BME280;48671;48.922;2.346;2023-03-13T03:49:46;100332.38;;;14.36;73.00
62600;BME280;48671;48.922;2.346;2023-03-13T03:52:12;100345.47;;;14.36;73.04
62600;BME280;48671;48.922;2.346;2023-03-13T03:54:37;100354.16;;;14.36;73.27
62600;BME280;48671;48.922;2.346;2023-03-13T03:57:03;100340.25;;;14.36;72.91
62600;BME280;48671;48.922;2.346;2023-03-13T03:59:28;100337.69;;;14.34;73.03
62600;BME280;48671;48.922;2.346;2023-03-13T04:01:53;100320.22;;;14.35;72.98
62600;BME280;48671;48.922;2.346;2023-03-13T04:04:19;100326.28;;;14.35;72.80
62600;BME280;48671;48.922;2.346;2023-03-13T04:06:44;100325.56;;;14.33;72.43
62600;BME280;48671;48.922;2.346;2023-03-13T04:09:09;100333.94;;;14.38;72.58
62600;BME280;48671;48.922;2.346;2023-03-13T04:11:35;100334.91;;;14.37;72.55
62600;BME280;48671;48.922;2.346;2023-03-13T04:14:00;100337.50;;;14.37;72.35
62600;BME280;48671;48.922;2.346;2023-03-13T04:16:25;100338.28;;;14.39;72.36
62600;BME280;48671;48.922;2.346;2023-03-13T04:18:50;100335.72;;;14.38;72.31
62600;BME280;48671;48.922;2.346;2023-03-13T04:21:16;100330.31;;;14.41;72.39
62600;BME280;48671;48.922;2.346;2023-03-13T04:23:41;100316.75;;;14.34;72.97
62600;BME280;48671;48.922;2.346;2023-03-13T04:26:06;100333.03;;;14.39;72.25
62600;BME280;48671;48.922;2.346;2023-03-13T04:28:32;100330.41;;;14.39;72.21
62600;BME280;48671;48.922;2.346;2023-03-13T04:30:57;100321.63;;;14.40;72.44
62600;BME280;48671;48.922;2.346;2023-03-13T04:33:23;100319.19;;;14.37;72.24
62600;BME280;48671;48.922;2.346;2023-03-13T04:35:49;100332.09;;;14.40;72.34
62600;BME280;48671;48.922;2.346;2023-03-13T04:38:14;100333.22;;;14.36;72.52
62600;BME280;48671;48.922;2.346;2023-03-13T04:40:39;100328.81;;;14.37;72.38
62600;BME280;48671;48.922;2.346;2023-03-13T04:43:05;100324.34;;;14.39;72.20
62600;BME280;48671;48.922;2.346;2023-03-13T04:45:30;100321.50;;;14.42;72.34
62600;BME280;48671;48.922;2.346;2023-03-13T04:47:55;100322.75;;;14.36;72.46
62600;BME280;48671;48.922;2.346;2023-03-13T04:50:21;100322.66;;;14.38;72.31
62600;BME280;48671;48.922;2.346;2023-03-13T04:52:46;100322.66;;;14.38;72.43
62600;BME280;48671;48.922;2.346;2023-03-13T04:55:11;100342.09;;;14.34;72.68
62600;BME280;48671;48.922;2.346;2023-03-13T04:57:37;100323.31;;;14.27;72.76
62600;BME280;48671;48.922;2.346;2023-03-13T05:00:04;100335.00;;;14.36;72.46
62600;BME280;48671;48.922;2.346;2023-03-13T05:02:32;100340.31;;;14.34;72.96
62600;BME280;48671;48.922;2.346;2023-03-13T05:04:57;100341.34;;;14.32;72.96
62600;BME280;48671;48.922;2.346;2023-03-13T05:07:22;100332.63;;;14.31;73.02
62600;BME280;48671;48.922;2.346;2023-03-13T05:09:48;100330.03;;;14.31;72.97
62600;BME280;48671;48.922;2.346;2023-03-13T05:12:13;100325.91;;;14.27;72.99
62600;BME280;48671;48.922;2.346;2023-03-13T05:14:38;100325.81;;;14.28;73.21
62600;BME280;48671;48.922;2.346;2023-03-13T05:17:03;100310.22;;;14.27;72.92
62600;BME280;48671;48.922;2.346;2023-03-13T05:19:29;100310.97;;;14.29;73.21
62600;BME280;48671;48.922;2.346;2023-03-13T05:21:54;100312.84;;;14.27;73.11
62600;BME280;48671;48.922;2.346;2023-03-13T05:24:19;100311.88;;;14.28;73.10
62600;BME280;48671;48.922;2.346;2023-03-13T05:26:45;100300.13;;;14.21;73.41
62600;BME280;48671;48.922;2.346;2023-03-13T05:29:10;100304.41;;;14.22;73.11
62600;BME280;48671;48.922;2.346;2023-03-13T05:31:35;100313.84;;;14.24;73.04
62600;BME280;48671;48.922;2.346;2023-03-13T05:34:01;100313.97;;;14.23;73.19
62600;BME280;48671;48.922;2.346;2023-03-13T05:36:26;100311.34;;;14.23;73.27
62600;BME280;48671;48.922;2.346;2023-03-13T05:38:51;100314.88;;;14.22;73.06
62600;BME280;48671;48.922;2.346;2023-03-13T05:41:17;100331.22;;;14.25;73.29
62600;BME280;48671;48.922;2.346;2023-03-13T05:43:42;100322.53;;;14.25;72.99
62600;BME280;48671;48.922;2.346;2023-03-13T05:46:07;100317.31;;;14.25;72.83
62600;BME280;48671;48.922;2.346;2023-03-13T05:48:33;100318.34;;;14.22;73.20
62600;BME280;48671;48.922;2.346;2023-03-13T05:50:58;100325.25;;;14.23;73.25
62600;BME280;48671;48.922;2.346;2023-03-13T05:53:23;100304.59;;;14.19;73.50
62600;BME280;48671;48.922;2.346;2023-03-13T05:55:48;100302.91;;;14.18;73.29
62600;BME280;48671;48.922;2.346;2023-03-13T05:58:14;100301.13;;;14.18;73.59
62600;BME280;48671;48.922;2.346;2023-03-13T06:00:39;100306.38;;;14.18;73.19
62600;BME280;48671;48.922;2.346;2023-03-13T06:03:05;100295.06;;;14.18;73.36
62600;BME280;48671;48.922;2.346;2023-03-13T06:05:30;100294.03;;;14.20;73.55
62600;BME280;48671;48.922;2.346;2023-03-13T06:07:55;100278.25;;;14.08;73.49
62600;BME280;48671;48.922;2.346;2023-03-13T06:10:20;100296.00;;;14.17;73.32
62600;BME280;48671;48.922;2.346;2023-03-13T06:12:53;100288.25;;;14.15;73.26
62600;BME280;48671;48.922;2.346;2023-03-13T06:15:19;100289.19;;;14.14;73.72
62600;BME280;48671;48.922;2.346;2023-03-13T06:17:44;100285.63;;;14.15;73.55
62600;BME280;48671;48.922;2.346;2023-03-13T06:20:10;100285.53;;;14.17;73.63
62600;BME280;48671;48.922;2.346;2023-03-13T06:22:36;100272.72;;;14.12;73.66
62600;BME280;48671;48.922;2.346;2023-03-13T06:25:01;100287.59;;;14.12;73.89
62600;BME280;48671;48.922;2.346;2023-03-13T06:27:26;100272.38;;;14.04;74.27
62600;BME280;48671;48.922;2.346;2023-03-13T06:29:52;100268.16;;;14.01;74.74
62600;BME280;48671;48.922;2.346;2023-03-13T06:32:17;100265.63;;;14.00;74.53
62600;BME280;48671;48.922;2.346;2023-03-13T06:34:42;100269.28;;;13.97;74.26
62600;BME280;48671;48.922;2.346;2023-03-13T06:37:07;100260.59;;;13.97;74.69
62600;BME280;48671;48.922;2.346;2023-03-13T06:39:33;100250.03;;;13.98;74.83
62600;BME280;48671;48.922;2.346;2023-03-13T06:41:58;100245.81;;;13.96;74.88
62600;BME280;48671;48.922;2.346;2023-03-13T06:44:24;100259.47;;;14.01;74.55
62600;BME280;48671;48.922;2.346;2023-03-13T06:46:49;100251.50;;;14.02;74.50
62600;BME280;48671;48.922;2.346;2023-03-13T06:49:14;100247.22;;;14.01;74.82
62600;BME280;48671;48.922;2.346;2023-03-13T06:51:39;100241.22;;;13.99;74.72
62600;BME280;48671;48.922;2.346;2023-03-13T06:54:05;100247.50;;;13.97;75.23
62600;BME280;48671;48.922;2.346;2023-03-13T06:56:30;100248.34;;;13.97;74.94
62600;BME280;48671;48.922;2.346;2023-03-13T06:58:56;100236.28;;;13.95;75.23
62600;BME280;48671;48.922;2.346;2023-03-13T07:01:21;100243.13;;;13.97;75.20
62600;BME280;48671;48.922;2.346;2023-03-13T07:03:47;100244.91;;;13.97;75.11
62600;BME280;48671;48.922;2.346;2023-03-13T07:06:13;100246.56;;;13.98;75.30
62600;BME280;48671;48.922;2.346;2023-03-13T07:08:39;100250.50;;;13.91;75.74
62600;BME280;48671;48.922;2.346;2023-03-13T07:11:06;100237.88;;;13.97;75.38
62600;BME280;48671;48.922;2.346;2023-03-13T07:13:32;100230.13;;;13.96;75.43
62600;BME280;48671;48.922;2.346;2023-03-13T07:16:02;100242.19;;;13.98;75.20
62600;BME280;48671;48.922;2.346;2023-03-13T07:18:29;100241.22;;;13.99;75.31
62600;BME280;48671;48.922;2.346;2023-03-13T07:20:56;100229.94;;;13.99;75.09
62600;BME280;48671;48.922;2.346;2023-03-13T07:23:23;100242.00;;;14.01;75.23
62600;BME280;48671;48.922;2.346;2023-03-13T07:26:06;100235.63;;;14.05;74.79
62600;BME280;48671;48.922;2.346;2023-03-13T07:28:32;100239.94;;;14.07;74.73
62600;BME280;48671;48.922;2.346;2023-03-13T07:31:06;100242.47;;;14.08;74.99
62600;BME280;48671;48.922;2.346;2023-03-13T07:33:32;100218.09;;;14.08;74.83
62600;BME280;48671;48.922;2.346;2023-03-13T07:35:57;100215.75;;;14.03;74.93
62600;BME280;48671;48.922;2.346;2023-03-13T07:38:23;100227.59;;;14.09;74.64
62600;BME280;48671;48.922;2.346;2023-03-13T07:40:53;100217.91;;;14.11;74.81
62600;BME280;48671;48.922;2.346;2023-03-13T07:43:19;100212.84;;;14.08;74.82
62600;BME280;48671;48.922;2.346;2023-03-13T07:48:17;100191.09;;;14.07;74.94
62600;BME280;48671;48.922;2.346;2023-03-13T07:50:42;100191.81;;;14.09;74.61
62600;BME280;48671;48.922;2.346;2023-03-13T07:53:08;100195.84;;;14.15;74.59
62600;BME280;48671;48.922;2.346;2023-03-13T07:55:33;100191.53;;;14.14;75.41
62600;BME280;48671;48.922;2.346;2023-03-13T07:57:58;100197.81;;;14.11;75.55
62600;BME280;48671;48.922;2.346;2023-03-13T08:00:24;100191.72;;;14.11;75.46
62600;BME280;48671;48.922;2.346;2023-03-13T08:02:49;100192.28;;;14.16;75.41
62600;BME280;48671;48.922;2.346;2023-03-13T08:05:14;100185.28;;;14.16;75.49
62600;BME280;48671;48.922;2.346;2023-03-13T08:07:58;100188.94;;;14.14;75.37
62600;BME280;48671;48.922;2.346;2023-03-13T08:10:23;100188.09;;;14.13;75.48
62600;BME280;48671;48.922;2.346;2023-03-13T08:12:48;100199.41;;;14.14;76.07
62600;BME280;48671;48.922;2.346;2023-03-13T08:15:14;100185.03;;;14.07;76.19
62600;BME280;48671;48.922;2.346;2023-03-13T08:17:39;100182.22;;;14.10;76.15
62600;BME280;48671;48.922;2.346;2023-03-13T08:20:05;100179.88;;;14.05;76.52
62600;BME280;48671;48.922;2.346;2023-03-13T08:22:32;100179.97;;;14.03;75.87
62600;BME280;48671;48.922;2.346;2023-03-13T08:24:57;100194.25;;;14.12;75.98
62600;BME280;48671;48.922;2.346;2023-03-13T08:27:22;100175.00;;;14.13;75.82
62600;BME280;48671;48.922;2.346;2023-03-13T08:29:47;100180.06;;;14.16;75.62
62600;BME280;48671;48.922;2.346;2023-03-13T08:32:13;100178.09;;;14.20;75.38
62600;BME280;48671;48.922;2.346;2023-03-13T08:34:38;100168.66;;;14.17;75.40
62600;BME280;48671;48.922;2.346;2023-03-13T08:37:03;100172.66;;;14.23;75.30
62600;BME280;48671;48.922;2.346;2023-03-13T08:39:29;100180.31;;;14.26;75.54
62600;BME280;48671;48.922;2.346;2023-03-13T08:41:54;100173.19;;;14.28;75.08
62600;BME280;48671;48.922;2.346;2023-03-13T08:44:19;100169.44;;;14.32;75.17
62600;BME280;48671;48.922;2.346;2023-03-13T08:46:45;100162.34;;;14.34;75.02
62600;BME280;48671;48.922;2.346;2023-03-13T08:49:12;100155.97;;;14.38;74.75
62600;BME280;48671;48.922;2.346;2023-03-13T08:51:37;100157.50;;;14.42;74.75
62600;BME280;48671;48.922;2.346;2023-03-13T08:54:04;100151.38;;;14.42;74.48
62600;BME280;48671;48.922;2.346;2023-03-13T08:56:30;100154.75;;;14.44;74.52
62600;BME280;48671;48.922;2.346;2023-03-13T08:58:57;100145.97;;;14.45;74.59
62600;BME280;48671;48.922;2.346;2023-03-13T09:01:26;100150.28;;;14.46;74.96
62600;BME280;48671;48.922;2.346;2023-03-13T09:03:52;100138.50;;;14.53;74.28
62600;BME280;48671;48.922;2.346;2023-03-13T09:06:18;100135.06;;;14.52;74.34
62600;BME280;48671;48.922;2.346;2023-03-13T09:08:44;100128.66;;;14.57;73.89
62600;BME280;48671;48.922;2.346;2023-03-13T09:11:12;100121.44;;;14.60;73.94
62600;BME280;48671;48.922;2.346;2023-03-13T09:13:41;100119.66;;;14.61;73.84
62600;BME280;48671;48.922;2.346;2023-03-13T09:16:09;100122.22;;;14.62;73.80
62600;BME280;48671;48.922;2.346;2023-03-13T09:18:35;100115.00;;;14.66;73.97
62600;BME280;48671;48.922;2.346;2023-03-13T09:21:01;100106.94;;;14.69;73.76
62600;BME280;48671;48.922;2.346;2023-03-13T09:23:27;100099.16;;;14.67;74.19
62600;BME280;48671;48.922;2.346;2023-03-13T09:25:54;100087.41;;;14.60;74.97
62600;BME280;48671;48.922;2.346;2023-03-13T09:28:20;100105.75;;;14.60;75.05
62600;BME280;48671;48.922;2.346;2023-03-13T09:30:45;100093.69;;;14.58;75.14
62600;BME280;48671;48.922;2.346;2023-03-13T09:33:11;100095.59;;;14.56;75.63
62600;BME280;48671;48.922;2.346;2023-03-13T09:35:39;100097.56;;;14.52;76.12
62600;BME280;48671;48.922;2.346;2023-03-13T09:38:05;100091.63;;;14.48;75.80
62600;BME280;48671;48.922;2.346;2023-03-13T09:40:37;100091.75;;;14.47;75.94
62600;BME280;48671;48.922;2.346;2023-03-13T09:43:24;100082.03;;;14.49;75.78
62600;BME280;48671;48.922;2.346;2023-03-13T09:45:58;100082.78;;;14.51;76.46
62600;BME280;48671;48.922;2.346;2023-03-13T09:48:31;100068.84;;;14.50;76.16
62600;BME280;48671;48.922;2.346;2023-03-13T09:53:45;100073.81;;;14.55;75.81
62600;BME280;48671;48.922;2.346;2023-03-13T09:56:17;100057.03;;;14.58;75.35
62600;BME280;48671;48.922;2.346;2023-03-13T09:58:51;100059.06;;;14.67;75.16
62600;BME280;48671;48.922;2.346;2023-03-13T10:01:22;100057.06;;;14.70;75.18
62600;BME280;48671;48.922;2.346;2023-03-13T10:04:13;100041.78;;;14.77;74.93
62600;BME280;48671;48.922;2.346;2023-03-13T10:06:47;100042.13;;;14.85;74.43
62600;BME280;48671;48.922;2.346;2023-03-13T10:11:54;100036.56;;;14.90;73.15
62600;BME280;48671;48.922;2.346;2023-03-13T10:19:46;100040.44;;;15.10;72.40
62600;BME280;48671;48.922;2.346;2023-03-13T10:22:18;100025.69;;;15.09;72.54
62600;BME280;48671;48.922;2.346;2023-03-13T10:24:55;100035.84;;;15.13;71.85
62600;BME280;48671;48.922;2.346;2023-03-13T10:27:22;100023.69;;;15.12;72.37
62600;BME280;48671;48.922;2.346;2023-03-13T10:29:47;100022.94;;;15.23;72.71
62600;BME280;48671;48.922;2.346;2023-03-13T10:32:15;100024.19;;;15.30;72.09
62600;BME280;48671;48.922;2.346;2023-03-13T10:34:45;100023.56;;;15.39;71.77
62600;BME280;48671;48.922;2.346;2023-03-13T10:37:14;100006.69;;;15.43;71.32
62600;BME280;48671;48.922;2.346;2023-03-13T10:39:40;99991.06;;;15.42;70.98
62600;BME280;48671;48.922;2.346;2023-03-13T10:42:10;100012.75;;;15.44;70.46
62600;BME280;48671;48.922;2.346;2023-03-13T10:44:43;100002.16;;;15.45;69.51
62600;BME280;48671;48.922;2.346;2023-03-13T10:47:12;100003.81;;;15.46;70.16
62600;BME280;48671;48.922;2.346;2023-03-13T10:49:47;99995.66;;;15.51;70.50
62600;BME280;48671;48.922;2.346;2023-03-13T10:52:28;99983.78;;;15.58;69.48
62600;BME280;48671;48.922;2.346;2023-03-13T10:55:01;100021.00;;;15.63;69.26
62600;BME280;48671;48.922;2.346;2023-03-13T10:57:32;99982.00;;;15.72;68.66
62600;BME280;48671;48.922;2.346;2023-03-13T10:59:58;99972.41;;;15.83;68.40
62600;BME280;48671;48.922;2.346;2023-03-13T11:02:36;99971.50;;;15.96;67.94
62600;BME280;48671;48.922;2.346;2023-03-13T11:07:48;99965.56;;;16.29;66.76
62600;BME280;48671;48.922;2.346;2023-03-13T11:10:28;99962.88;;;16.42;65.68
62600;BME280;48671;48.922;2.346;2023-03-13T11:13:01;99973.47;;;16.75;64.80
62600;BME280;48671;48.922;2.346;2023-03-13T11:15:31;99969.69;;;16.91;64.12
62600;BME280;48671;48.922;2.346;2023-03-13T11:18:13;99975.16;;;16.99;64.07
62600;BME280;48671;48.922;2.346;2023-03-13T11:20:43;99982.81;;;17.02;64.06
62600;BME280;48671;48.922;2.346;2023-03-13T11:23:28;99984.03;;;16.98;64.03
62600;BME280;48671;48.922;2.346;2023-03-13T11:26:17;99972.78;;;16.96;64.62
62600;BME280;48671;48.922;2.346;2023-03-13T11:31:33;99970.00;;;16.86;63.47
62600;BME280;48671;48.922;2.346;2023-03-13T11:37:04;99969.16;;;16.74;63.88
62600;BME280;48671;48.922;2.346;2023-03-13T11:54:05;99955.16;;;16.74;60.08
62600;BME280;48671;48.922;2.346;2023-03-13T11:56:36;99954.31;;;16.73;61.50
62600;BME280;48671;48.922;2.346;2023-03-13T12:04:40;99918.38;;;16.74;59.42
62600;BME280;48671;48.922;2.346;2023-03-13T12:09:36;99930.22;;;16.68;57.58
62600;BME280;48671;48.922;2.346;2023-03-13T12:14:39;99920.53;;;16.69;58.48
62600;BME280;48671;48.922;2.346;2023-03-13T12:17:20;99901.09;;;16.71;59.42
62600;BME280;48671;48.922;2.346;2023-03-13T12:19:57;99901.09;;;16.71;58.68
62600;BME280;48671;48.922;2.346;2023-03-13T12:22:34;99902.50;;;16.64;57.30
62600;BME280;48671;48.922;2.346;2023-03-13T12:25:24;99889.72;;;16.71;59.35
62600;BME280;48671;48.922;2.346;2023-03-13T12:27:53;99887.97;;;16.71;59.33
62600;BME280;48671;48.922;2.346;2023-03-13T12:30:32;99892.47;;;16.69;58.91
62600;BME280;48671;48.922;2.346;2023-03-13T12:35:30;99857.97;;;16.74;59.19
62600;BME280;48671;48.922;2.346;2023-03-13T12:38:18;99850.22;;;16.72;59.43
62600;BME280;48671;48.922;2.346;2023-03-13T12:41:00;99843.78;;;16.65;58.82
62600;BME280;48671;48.922;2.346;2023-03-13T12:43:34;99849.13;;;16.63;59.63
62600;BME280;48671;48.922;2.346;2023-03-13T12:46:14;99848.44;;;16.61;59.22
62600;BME280;48671;48.922;2.346;2023-03-13T12:59:06;99805.44;;;16.62;59.48
62600;BME280;48671;48.922;2.346;2023-03-13T13:01:41;99796.59;;;16.63;60.00
62600;BME280;48671;48.922;2.346;2023-03-13T13:04:13;99788.88;;;16.62;59.38
62600;BME280;48671;48.922;2.346;2023-03-13T13:07:17;99792.06;;;16.66;59.78
62600;BME280;48671;48.922;2.346;2023-03-13T13:10:13;99799.13;;;16.76;59.55
62600;BME280;48671;48.922;2.346;2023-03-13T13:12:45;99785.16;;;16.76;59.00
62600;BME280;48671;48.922;2.346;2023-03-13T13:15:18;99768.44;;;16.77;59.86
62600;BME280;48671;48.922;2.346;2023-03-13T13:17:54;99757.22;;;16.86;60.22
62600;BME280;48671;48.922;2.346;2023-03-13T13:23:27;99736.72;;;17.86;58.49
62600;BME280;48671;48.922;2.346;2023-03-13T13:28:48;99715.06;;;18.75;56.89
62600;BME280;48671;48.922;2.346;2023-03-13T13:36:57;99714.19;;;18.34;54.51
62600;BME280;48671;48.922;2.346;2023-03-13T13:39:45;99715.94;;;18.14;54.77
62600;BME280;48671;48.922;2.346;2023-03-13T13:44:57;99703.97;;;18.00;55.82
62600;BME280;48671;48.922;2.346;2023-03-13T13:47:25;99689.56;;;18.04;55.30
62600;BME280;48671;48.922;2.346;2023-03-13T13:49:54;99698.19;;;18.06;55.33
62600;BME280;48671;48.922;2.346;2023-03-13T13:54:56;99684.78;;;17.88;55.86
62600;BME280;48671;48.922;2.346;2023-03-13T13:57:25;99676.72;;;18.11;53.65
62600;BME280;48671;48.922;2.346;2023-03-13T13:59:55;99664.41;;;18.21;53.87
62600;BME280;48671;48.922;2.346;2023-03-13T14:02:28;99649.63;;;18.39;54.19
62600;BME280;48671;48.922;2.346;2023-03-13T14:05:00;99646.75;;;18.42;53.60
62600;BME280;48671;48.922;2.346;2023-03-13T14:12:46;99646.88;;;18.60;52.66
62600;BME280;48671;48.922;2.346;2023-03-13T14:15:18;99642.97;;;18.35;54.50
62600;BME280;48671;48.922;2.346;2023-03-13T14:17:52;99643.31;;;18.11;53.87
62600;BME280;48671;48.922;2.346;2023-03-13T14:20:27;99669.00;;;17.88;53.82
62600;BME280;48671;48.922;2.346;2023-03-13T14:22:55;99634.34;;;17.62;54.44
62600;BME280;48671;48.922;2.346;2023-03-13T14:25:23;99639.41;;;17.44;55.08